Time;durP1;ratioP1;P1;durP2;ratioP2;P2;SDS_P1;SDS_P2;PMS_P1;PMS_P2;Temp;Humidity;BMP_temperature;BMP_pressure;BME280_temperature;BME280_humidity;BME280_pressure;Samples;Min_cycle;Max_cycle;Signal;HPM_P1;HPM_P2
2021/12/22 00:00:46;;;;;;;12.68;5.50;;;;;;;;;;5049022;28;20025;-71
2021/12/22 00:03:11;;;;;;;10.05;4.95;;;;;;;;;;5048230;28;20052;-68
2021/12/22 00:05:43;;;;;;;18.63;5.63;;;;;;;;;;5050223;28;20032;-68
2021/12/22 00:08:09;;;;;;;12.13;4.95;;;;;;;;;;5049839;28;20052;-68
2021/12/22 00:10:34;;;;;;;12.85;5.32;;;;;;;;;;5041406;28;20068;-70
2021/12/22 00:12:59;;;;;;;11.75;5.03;;;;;;;;;;5030561;28;20102;-68
2021/12/22 00:15:24;;;;;;;14.98;5.30;;;;;;;;;;5049106;28;20086;-69
2021/12/22 00:17:50;;;;;;;14.50;4.78;;;;;;;;;;5049017;28;20059;-68
2021/12/22 00:20:15;;;;;;;18.23;5.32;;;;;;;;;;5047532;28;20017;-70
2021/12/22 00:22:41;;;;;;;15.40;5.72;;;;;;;;;;5044899;28;20017;-68
2021/12/22 00:25:06;;;;;;;17.05;5.38;;;;;;;;;;5050247;28;20029;-68
2021/12/22 00:27:31;;;;;;;13.77;5.53;;;;;;;;;;5053171;28;20389;-70
2021/12/22 00:29:57;;;;;;;13.68;5.28;;;;;;;;;;5049099;28;20465;-68
2021/12/22 00:32:23;;;;;;;11.50;4.85;;;;;;;;;;5044652;28;20060;-69
2021/12/22 00:34:52;;;;;;;15.68;5.70;;;;;;;;;;5030684;28;20017;-69
2021/12/22 00:37:19;;;;;;;15.75;5.57;;;;;;;;;;5055049;28;20028;-69
2021/12/22 00:39:44;;;;;;;10.93;5.75;;;;;;;;;;5052473;28;20380;-68
2021/12/22 00:42:11;;;;;;;12.43;5.43;;;;;;;;;;5032208;28;20025;-68
2021/12/22 00:44:36;;;;;;;16.77;5.53;;;;;;;;;;5049835;28;20449;-68
2021/12/22 00:47:02;;;;;;;18.73;5.40;;;;;;;;;;5050357;28;20017;-68
2021/12/22 00:49:27;;;;;;;14.15;5.63;;;;;;;;;;5045143;28;20025;-68
2021/12/22 00:51:52;;;;;;;12.82;5.18;;;;;;;;;;5048844;28;20044;-67
2021/12/22 00:54:17;;;;;;;16.58;5.85;;;;;;;;;;5050001;28;20048;-68
2021/12/22 00:56:42;;;;;;;12.98;5.57;;;;;;;;;;5054491;28;20052;-68
2021/12/22 00:59:08;;;;;;;17.65;5.38;;;;;;;;;;5060040;28;20083;-67
2021/12/22 01:01:33;;;;;;;16.42;5.38;;;;;;;;;;5049455;28;20103;-67
2021/12/22 01:03:58;;;;;;;10.80;5.65;;;;;;;;;;5050252;28;20445;-69
2021/12/22 01:06:23;;;;;;;18.83;5.32;;;;;;;;;;5054496;28;20021;-68
2021/12/22 01:08:49;;;;;;;12.80;5.03;;;;;;;;;;5053446;28;20049;-68
2021/12/22 01:11:14;;;;;;;16.38;5.35;;;;;;;;;;5049146;28;20029;-68
2021/12/22 01:13:40;;;;;;;13.85;5.07;;;;;;;;;;5049623;28;20032;-67
2021/12/22 01:16:05;;;;;;;16.35;4.70;;;;;;;;;;5049197;28;20091;-68
2021/12/22 01:18:33;;;;;;;14.30;5.32;;;;;;;;;;5031846;28;20096;-67
2021/12/22 01:21:12;;;;;;;10.80;4.75;;;;;;;;;;5049021;28;20045;-67
2021/12/22 01:23:50;;;;;;;13.80;4.78;;;;;;;;;;5049471;28;20032;-67
2021/12/22 01:26:16;;;;;;;14.02;4.68;;;;;;;;;;5059046;28;20023;-68
2021/12/22 01:28:42;;;;;;;13.90;4.97;;;;;;;;;;5045596;28;20021;-67
2021/12/22 01:31:13;;;;;;;11.70;5.05;;;;;;;;;;5049181;28;20021;-68
2021/12/22 01:33:39;;;;;;;13.93;4.68;;;;;;;;;;5049298;28;20017;-68
2021/12/22 01:36:04;;;;;;;13.90;5.40;;;;;;;;;;5049348;28;20128;-68
2021/12/22 01:38:29;;;;;;;10.82;4.85;;;;;;;;;;5049215;28;20032;-69
2021/12/22 01:40:54;;;;;;;14.82;5.38;;;;;;;;;;5048711;28;20036;-68
2021/12/22 01:43:20;;;;;;;11.48;4.95;;;;;;;;;;5052467;28;20159;-68
2021/12/22 01:51:24;;;;;;;15.15;6.15;;;;;;;;;;5052954;28;20043;-69
2021/12/22 01:53:49;;;;;;;19.67;6.40;;;;;;;;;;5051868;28;20025;-68
2021/12/22 01:58:44;;;;;;;14.15;5.85;;;;;;;;;;5052553;28;20036;-68
2021/12/22 02:01:10;;;;;;;16.80;6.10;;;;;;;;;;5051750;28;20485;-68
2021/12/22 02:03:38;;;;;;;22.38;5.80;;;;;;;;;;5052879;28;20014;-68
2021/12/22 02:06:05;;;;;;;19.13;7.25;;;;;;;;;;5055345;28;20389;-68
2021/12/22 02:08:30;;;;;;;18.98;6.15;;;;;;;;;;5064644;28;20443;-68
2021/12/22 02:10:56;;;;;;;14.00;4.93;;;;;;;;;;5053709;28;20108;-68
2021/12/22 02:13:27;;;;;;;12.68;4.88;;;;;;;;;;5053166;28;20017;-68
2021/12/22 02:15:53;;;;;;;11.68;4.80;;;;;;;;;;5061153;28;20074;-68
2021/12/22 02:18:20;;;;;;;13.50;4.38;;;;;;;;;;5052493;28;20025;-70
2021/12/22 02:20:46;;;;;;;11.63;4.82;;;;;;;;;;5052191;28;20106;-68
2021/12/22 02:23:12;;;;;;;16.50;5.43;;;;;;;;;;5051849;28;20025;-68
2021/12/22 02:25:45;;;;;;;14.75;4.90;;;;;;;;;;5052320;28;20043;-69
2021/12/22 02:28:17;;;;;;;12.82;5.40;;;;;;;;;;5052422;28;20307;-68
2021/12/22 02:30:42;;;;;;;14.18;4.47;;;;;;;;;;5048756;28;20033;-68
2021/12/22 02:33:20;;;;;;;10.48;4.50;;;;;;;;;;5052959;28;20075;-68
2021/12/22 02:35:55;;;;;;;13.27;5.85;;;;;;;;;;5059205;28;20479;-69
2021/12/22 02:38:20;;;;;;;14.73;4.90;;;;;;;;;;5052487;28;20372;-68
2021/12/22 02:40:47;;;;;;;14.10;4.90;;;;;;;;;;5051789;28;20013;-68
2021/12/22 02:43:19;;;;;;;16.35;6.38;;;;;;;;;;5052116;28;20024;-68
2021/12/22 02:45:44;;;;;;;17.75;5.05;;;;;;;;;;5051785;28;20033;-68
2021/12/22 02:48:09;;;;;;;16.52;5.50;;;;;;;;;;5052120;28;20074;-68
2021/12/22 02:50:36;;;;;;;12.52;4.82;;;;;;;;;;5051348;28;20381;-68
2021/12/22 02:53:06;;;;;;;15.43;5.80;;;;;;;;;;5054257;28;20511;-68
2021/12/22 02:55:48;;;;;;;;;;;;;;;;;;5063037;28;20452;-68
2021/12/22 02:58:23;;;;;;;15.60;5.45;;;;;;;;;;5052237;28;19909;-68
2021/12/22 03:03:54;;;;;;;12.15;5.78;;;;;;;;;;5051544;28;20095;-68
2021/12/22 03:06:32;;;;;;;15.32;4.43;;;;;;;;;;5055465;28;20023;-68
2021/12/22 03:08:58;;;;;;;16.30;5.07;;;;;;;;;;5065562;28;20020;-68
2021/12/22 03:11:23;;;;;;;11.13;5.07;;;;;;;;;;5054902;28;20425;-68
2021/12/22 03:13:49;;;;;;;11.05;4.53;;;;;;;;;;5051635;28;20025;-69
2021/12/22 03:16:16;;;;;;;9.23;4.30;;;;;;;;;;5051757;28;20054;-68
2021/12/22 03:18:41;;;;;;;19.17;5.10;;;;;;;;;;5051142;28;20020;-68
2021/12/22 03:21:24;;;;;;;16.85;5.03;;;;;;;;;;5050926;28;20032;-67
2021/12/22 03:23:51;;;;;;;13.75;4.45;;;;;;;;;;5051698;28;20022;-68
2021/12/22 03:26:18;;;;;;;19.45;4.68;;;;;;;;;;5051736;28;20031;-68
2021/12/22 03:28:46;;;;;;;8.23;4.10;;;;;;;;;;5042014;28;20048;-69
2021/12/22 03:31:12;;;;;;;10.95;3.67;;;;;;;;;;5060481;28;20032;-68
2021/12/22 03:33:37;;;;;;;11.80;4.60;;;;;;;;;;5050840;28;20033;-67
2021/12/22 03:36:03;;;;;;;9.15;4.28;;;;;;;;;;5050579;28;20028;-67
2021/12/22 03:38:30;;;;;;;15.35;5.65;;;;;;;;;;5051038;28;20100;-68
2021/12/22 03:40:55;;;;;;;10.60;4.68;;;;;;;;;;5050286;28;20105;-67
2021/12/22 03:43:20;;;;;;;13.05;4.43;;;;;;;;;;5051052;28;20032;-69
2021/12/22 03:45:45;;;;;;;11.10;4.28;;;;;;;;;;5051472;28;20059;-67
2021/12/22 03:48:11;;;;;;;14.73;4.55;;;;;;;;;;5057308;28;20378;-67
2021/12/22 03:50:37;;;;;;;9.20;4.10;;;;;;;;;;5052545;28;20025;-67
2021/12/22 03:53:02;;;;;;;9.98;4.30;;;;;;;;;;5050277;28;20021;-67
2021/12/22 03:55:27;;;;;;;9.75;4.10;;;;;;;;;;5050231;28;20048;-67
2021/12/22 03:57:52;;;;;;;9.18;4.07;;;;;;;;;;5050445;28;20476;-68
2021/12/22 04:00:18;;;;;;;7.05;3.83;;;;;;;;;;5049080;28;20036;-68
2021/12/22 04:02:44;;;;;;;13.30;4.18;;;;;;;;;;5050193;28;20535;-67
2021/12/22 04:05:09;;;;;;;8.30;2.75;;;;;;;;;;5046670;28;20024;-68
2021/12/22 04:07:34;;;;;;;12.00;3.47;;;;;;;;;;5056001;28;20064;-67
2021/12/22 04:10:08;;;;;;;11.90;3.88;;;;;;;;;;5069678;28;20053;-68
2021/12/22 04:12:33;;;;;;;10.50;4.20;;;;;;;;;;5049984;28;20033;-68
2021/12/22 04:14:58;;;;;;;8.73;3.42;;;;;;;;;;5050471;28;20389;-68
2021/12/22 04:17:23;;;;;;;13.00;4.38;;;;;;;;;;5049939;28;20032;-68
2021/12/22 04:19:48;;;;;;;11.65;3.35;;;;;;;;;;5032632;28;20024;-67
2021/12/22 04:22:15;;;;;;;13.65;4.07;;;;;;;;;;5054729;28;20119;-68
2021/12/22 04:24:40;;;;;;;11.27;4.18;;;;;;;;;;5053331;28;20449;-68
2021/12/22 04:27:05;;;;;;;15.27;4.32;;;;;;;;;;5049749;28;20163;-67
2021/12/22 04:29:30;;;;;;;10.68;4.00;;;;;;;;;;5049627;28;20396;-67
2021/12/22 04:31:56;;;;;;;13.40;2.90;;;;;;;;;;5049546;28;20054;-67
2021/12/22 04:34:21;;;;;;;11.40;3.83;;;;;;;;;;5050070;28;20108;-68
2021/12/22 04:36:46;;;;;;;13.20;3.97;;;;;;;;;;5049154;28;20019;-68
2021/12/22 04:39:12;;;;;;;10.43;3.67;;;;;;;;;;5049925;28;20056;-68
2021/12/22 04:41:38;;;;;;;12.82;4.35;;;;;;;;;;5054800;28;20108;-68
2021/12/22 04:44:03;;;;;;;14.27;4.25;;;;;;;;;;5065147;28;20016;-67
2021/12/22 04:46:28;;;;;;;8.73;3.97;;;;;;;;;;5055605;28;20017;-69
2021/12/22 04:48:53;;;;;;;16.52;3.75;;;;;;;;;;5050011;28;20065;-68
2021/12/22 04:51:28;;;;;;;9.95;3.78;;;;;;;;;;5049848;28;20045;-67
2021/12/22 04:54:03;;;;;;;10.00;4.03;;;;;;;;;;5049688;28;20068;-68
2021/12/22 04:56:28;;;;;;;11.05;3.95;;;;;;;;;;5031902;28;20029;-68
2021/12/22 04:58:53;;;;;;;9.52;4.20;;;;;;;;;;5050270;28;20516;-68
2021/12/22 05:01:18;;;;;;;10.50;3.88;;;;;;;;;;5049928;28;20033;-68
2021/12/22 05:03:44;;;;;;;11.25;4.20;;;;;;;;;;5049681;28;20116;-68
2021/12/22 05:06:09;;;;;;;19.70;4.10;;;;;;;;;;5054523;28;20537;-68
2021/12/22 05:08:34;;;;;;;13.55;5.55;;;;;;;;;;5044747;28;20074;-68
2021/12/22 05:10:59;;;;;;;7.88;3.67;;;;;;;;;;5050125;28;20025;-70
2021/12/22 05:13:25;;;;;;;11.05;4.13;;;;;;;;;;5045501;28;20124;-67
2021/12/22 05:15:51;;;;;;;8.35;3.92;;;;;;;;;;5050035;28;20051;-70
2021/12/22 05:18:50;;;;;;;11.70;4.50;;;;;;;;;;5053823;28;20025;-68
2021/12/22 05:21:07;;;;;;;7.82;3.80;;;;;;;;;;5051809;28;20027;-68
2021/12/22 05:23:33;;;;;;;9.80;4.47;;;;;;;;;;5053554;28;20376;-68
2021/12/22 05:25:58;;;;;;;8.30;4.15;;;;;;;;;;5055357;28;20087;-68
2021/12/22 05:28:23;;;;;;;9.60;3.53;;;;;;;;;;5061954;28;20029;-68
2021/12/22 05:30:48;;;;;;;10.35;3.95;;;;;;;;;;5052827;28;20028;-68
2021/12/22 05:33:14;;;;;;;14.18;4.55;;;;;;;;;;5053855;28;20069;-68
2021/12/22 05:35:39;;;;;;;12.38;5.15;;;;;;;;;;5053073;28;20020;-68
2021/12/22 05:38:05;;;;;;;7.60;3.35;;;;;;;;;;5051544;28;20060;-68
2021/12/22 05:40:30;;;;;;;11.45;4.22;;;;;;;;;;5052452;28;20040;-70
2021/12/22 05:42:56;;;;;;;8.50;3.92;;;;;;;;;;5052642;28;20131;-68
2021/12/22 05:45:21;;;;;;;14.23;4.05;;;;;;;;;;5053281;28;20021;-69
2021/12/22 05:47:46;;;;;;;7.22;3.95;;;;;;;;;;5064046;28;20027;-68
2021/12/22 05:50:12;;;;;;;12.27;3.88;;;;;;;;;;5068534;28;20020;-68
2021/12/22 05:52:37;;;;;;;8.95;4.07;;;;;;;;;;5053401;28;20017;-68
2021/12/22 05:55:02;;;;;;;12.55;4.55;;;;;;;;;;5053212;28;20378;-68
2021/12/22 05:57:28;;;;;;;9.90;4.07;;;;;;;;;;5052498;28;20382;-68
2021/12/22 05:59:53;;;;;;;12.80;3.72;;;;;;;;;;5052872;28;20059;-69
2021/12/22 06:02:18;;;;;;;11.77;3.80;;;;;;;;;;5052316;28;20028;-68
2021/12/22 06:04:43;;;;;;;14.93;4.50;;;;;;;;;;5035407;28;20040;-68
2021/12/22 06:07:08;;;;;;;10.15;4.25;;;;;;;;;;5062812;28;20033;-68
2021/12/22 06:09:34;;;;;;;8.60;4.25;;;;;;;;;;5067773;28;20032;-68
2021/12/22 06:11:59;;;;;;;13.68;4.65;;;;;;;;;;5052235;28;20091;-69
2021/12/22 06:14:24;;;;;;;9.95;4.40;;;;;;;;;;5052498;28;20032;-68
2021/12/22 06:16:49;;;;;;;10.20;4.95;;;;;;;;;;5052591;28;20043;-69
2021/12/22 06:19:15;;;;;;;12.35;4.05;;;;;;;;;;5048284;28;20013;-68
2021/12/22 06:21:41;;;;;;;9.10;4.45;;;;;;;;;;5051809;28;20021;-69
2021/12/22 06:24:07;;;;;;;7.68;3.47;;;;;;;;;;5037606;28;20018;-69
2021/12/22 06:26:33;;;;;;;13.15;4.47;;;;;;;;;;5040611;28;20062;-68
2021/12/22 06:28:58;;;;;;;11.40;4.30;;;;;;;;;;5058252;28;20017;-69
2021/12/22 06:31:23;;;;;;;15.38;4.50;;;;;;;;;;5059637;28;20021;-68
2021/12/22 06:33:48;;;;;;;15.55;4.18;;;;;;;;;;5051157;28;20049;-69
2021/12/22 06:36:14;;;;;;;11.60;5.70;;;;;;;;;;5052195;28;20416;-68
2021/12/22 06:38:39;;;;;;;9.43;4.00;;;;;;;;;;5052054;28;20021;-69
2021/12/22 06:41:04;;;;;;;15.23;4.78;;;;;;;;;;5049347;28;20562;-69
2021/12/22 06:43:30;;;;;;;9.93;4.35;;;;;;;;;;5034460;28;20025;-68
2021/12/22 06:45:55;;;;;;;13.23;5.22;;;;;;;;;;5051786;28;20151;-68
2021/12/22 06:48:21;;;;;;;13.30;4.55;;;;;;;;;;5058154;28;20020;-69
2021/12/22 06:50:46;;;;;;;14.90;4.80;;;;;;;;;;5054703;28;20031;-68
2021/12/22 06:53:11;;;;;;;18.70;4.82;;;;;;;;;;5051634;28;20031;-69
2021/12/22 06:55:36;;;;;;;9.68;3.90;;;;;;;;;;5051673;28;20047;-68
2021/12/22 06:58:01;;;;;;;19.27;5.25;;;;;;;;;;5051575;28;20021;-68
2021/12/22 07:00:27;;;;;;;20.98;5.22;;;;;;;;;;5051606;28;20484;-69
2021/12/22 07:02:53;;;;;;;10.20;5.05;;;;;;;;;;5051682;28;20017;-68
2021/12/22 07:05:19;;;;;;;13.02;6.13;;;;;;;;;;5050404;28;20029;-69
2021/12/22 07:07:44;;;;;;;18.80;4.60;;;;;;;;;;5059250;28;20029;-68
2021/12/22 07:10:12;;;;;;;20.13;3.95;;;;;;;;;;5060976;28;20067;-71
2021/12/22 07:12:41;;;;;;;6.53;3.33;;;;;;;;;;5061496;28;20032;-69
2021/12/22 07:15:09;;;;;;;15.32;4.97;;;;;;;;;;5051231;28;20142;-69
2021/12/22 07:17:35;;;;;;;9.75;3.63;;;;;;;;;;5051190;28;20500;-68
2021/12/22 07:20:00;;;;;;;17.17;5.28;;;;;;;;;;5050743;28;20021;-69
2021/12/22 07:22:25;;;;;;;15.57;5.13;;;;;;;;;;5051756;28;20021;-68
2021/12/22 07:24:50;;;;;;;9.60;4.28;;;;;;;;;;5055401;28;20366;-68
2021/12/22 07:27:15;;;;;;;10.00;4.82;;;;;;;;;;5059467;28;20037;-68
2021/12/22 07:29:41;;;;;;;12.25;4.53;;;;;;;;;;5050784;28;20017;-69
2021/12/22 07:32:07;;;;;;;10.07;4.22;;;;;;;;;;5051335;28;20017;-69
2021/12/22 07:34:55;;;;;;;13.82;4.93;;;;;;;;;;5049945;28;20500;-68
2021/12/22 07:37:30;;;;;;;0.60;0.60;;;;;;;;;;5034401;28;20404;-69
2021/12/22 07:39:56;;;;;;;16.30;4.20;;;;;;;;;;5049346;28;20017;-70
2021/12/22 07:42:21;;;;;;;13.55;4.00;;;;;;;;;;5052763;28;20017;-69
2021/12/22 07:44:46;;;;;;;14.23;5.25;;;;;;;;;;5050277;28;20040;-70
2021/12/22 07:47:11;;;;;;;14.05;4.95;;;;;;;;;;5050356;28;20032;-69
2021/12/22 07:49:36;;;;;;;10.77;5.78;;;;;;;;;;5050077;28;20118;-68
2021/12/22 07:52:02;;;;;;;15.68;5.80;;;;;;;;;;5043975;28;20032;-70
2021/12/22 07:54:27;;;;;;;12.30;6.00;;;;;;;;;;5050778;28;20358;-70
2021/12/22 07:56:52;;;;;;;10.23;5.78;;;;;;;;;;5049581;28;20032;-70
2021/12/22 07:59:17;;;;;;;15.73;6.15;;;;;;;;;;5047392;28;20053;-70
2021/12/22 08:01:43;;;;;;;15.07;6.97;;;;;;;;;;5050178;28;20080;-69
2021/12/22 08:04:08;;;;;;;16.38;6.65;;;;;;;;;;5033413;28;20033;-70
2021/12/22 08:06:33;;;;;;;20.85;8.55;;;;;;;;;;5053569;28;20025;-69
2021/12/22 08:08:58;;;;;;;19.58;7.72;;;;;;;;;;5049452;28;20397;-70
2021/12/22 08:11:23;;;;;;;21.17;9.32;;;;;;;;;;5049570;28;20009;-69
2021/12/22 08:13:48;;;;;;;25.38;9.85;;;;;;;;;;5053123;28;20043;-70
2021/12/22 08:16:14;;;;;;;15.00;6.95;;;;;;;;;;5046255;28;20051;-70
2021/12/22 08:18:39;;;;;;;14.38;6.22;;;;;;;;;;5047253;28;20052;-70
2021/12/22 08:21:04;;;;;;;10.88;4.50;;;;;;;;;;5046858;28;20087;-70
2021/12/22 08:23:30;;;;;;;13.15;5.32;;;;;;;;;;5046677;28;20403;-70
2021/12/22 08:25:55;;;;;;;13.73;5.50;;;;;;;;;;5052671;28;20155;-70
2021/12/22 08:28:20;;;;;;;13.73;5.22;;;;;;;;;;5047910;28;20025;-70
2021/12/22 08:30:46;;;;;;;14.75;5.45;;;;;;;;;;5054335;28;20064;-70
2021/12/22 08:33:20;;;;;;;19.80;5.57;;;;;;;;;;5047629;28;20100;-71
2021/12/22 08:38:52;;;;;;;17.27;5.72;;;;;;;;;;5047664;28;20083;-70
2021/12/22 08:41:23;;;;;;;18.50;5.97;;;;;;;;;;5045524;28;20028;-70
2021/12/22 08:43:49;;;;;;;19.60;6.60;;;;;;;;;;5046131;28;20021;-71
2021/12/22 08:46:14;;;;;;;14.40;5.60;;;;;;;;;;5047808;28;20378;-70
2021/12/22 08:48:39;;;;;;;14.57;5.88;;;;;;;;;;5046655;28;20017;-71
2021/12/22 08:51:05;;;;;;;11.30;5.13;;;;;;;;;;5048242;28;20025;-70
2021/12/22 08:53:30;;;;;;;13.63;6.20;;;;;;;;;;5051721;28;20039;-71
2021/12/22 08:55:55;;;;;;;10.77;5.10;;;;;;;;;;5050040;28;20029;-71
2021/12/22 08:58:20;;;;;;;13.48;5.63;;;;;;;;;;5053667;28;20010;-70
2021/12/22 09:00:45;;;;;;;22.73;5.80;;;;;;;;;;5053747;28;20320;-71
2021/12/22 09:03:11;;;;;;;10.48;5.93;;;;;;;;;;5057012;28;20016;-70
2021/12/22 09:05:36;;;;;;;7.93;3.45;;;;;;;;;;5059872;28;20092;-69
2021/12/22 09:08:01;;;;;;;13.57;5.75;;;;;;;;;;5050670;28;20404;-70
2021/12/22 09:10:26;;;;;;;16.08;5.82;;;;;;;;;;5049093;28;20113;-70
2021/12/22 09:12:52;;;;;;;8.07;4.35;;;;;;;;;;5056331;28;20021;-68
2021/12/22 09:15:17;;;;;;;16.30;5.80;;;;;;;;;;5067359;28;20035;-70
2021/12/22 09:17:42;;;;;;;6.45;3.47;;;;;;;;;;5062858;28;20103;-69
2021/12/22 09:20:08;;;;;;;15.60;6.70;;;;;;;;;;5052774;28;20350;-69
2021/12/22 09:22:33;;;;;;;8.57;4.40;;;;;;;;;;5049839;28;20538;-70
2021/12/22 09:24:58;;;;;;;10.30;3.92;;;;;;;;;;5059226;28;20017;-68
2021/12/22 09:27:23;;;;;;;9.82;4.93;;;;;;;;;;5050089;28;20544;-70
2021/12/22 09:29:49;;;;;;;10.10;5.43;;;;;;;;;;5053415;28;20029;-69
2021/12/22 09:32:17;;;;;;;13.13;5.18;;;;;;;;;;5051833;28;20060;-70
2021/12/22 09:34:43;;;;;;;17.02;4.55;;;;;;;;;;5042522;28;20103;-70
2021/12/22 09:37:08;;;;;;;7.53;4.00;;;;;;;;;;5053761;28;20026;-70
2021/12/22 09:39:33;;;;;;;6.57;3.05;;;;;;;;;;5053922;28;20408;-70
2021/12/22 09:41:58;;;;;;;4.78;2.70;;;;;;;;;;5052899;28;20037;-69
2021/12/22 09:44:30;;;;;;;7.70;3.78;;;;;;;;;;5053673;28;20028;-68
2021/12/22 09:46:56;;;;;;;12.25;3.53;;;;;;;;;;5053123;28;20544;-70
2021/12/22 09:49:37;;;;;;;15.93;6.43;;;;;;;;;;5053407;28;20093;-69
2021/12/22 09:52:17;;;;;;;11.10;3.50;;;;;;;;;;5053333;28;20024;-68
2021/12/22 09:54:43;;;;;;;15.75;5.65;;;;;;;;;;5053064;28;20055;-70
2021/12/22 09:57:08;;;;;;;11.43;3.92;;;;;;;;;;5053547;28;20032;-67
2021/12/22 09:59:34;;;;;;;14.02;5.68;;;;;;;;;;5052675;28;20013;-70
2021/12/22 10:01:59;;;;;;;11.48;5.63;;;;;;;;;;5052303;28;20040;-67
2021/12/22 10:04:24;;;;;;;10.48;5.03;;;;;;;;;;5052545;28;20070;-69
2021/12/22 10:06:49;;;;;;;16.65;6.72;;;;;;;;;;5053383;28;20041;-67
2021/12/22 10:09:21;;;;;;;14.43;5.57;;;;;;;;;;5053120;28;20087;-67
2021/12/22 10:11:47;;;;;;;6.82;3.38;;;;;;;;;;5052570;28;20021;-67
2021/12/22 10:14:21;;;;;;;6.32;2.40;;;;;;;;;;5052624;28;20408;-67
2021/12/22 10:16:48;;;;;;;7.45;3.83;;;;;;;;;;5052976;28;20017;-67
2021/12/22 10:19:13;;;;;;;11.85;5.28;;;;;;;;;;5052557;28;20547;-68
2021/12/22 10:21:52;;;;;;;10.57;5.03;;;;;;;;;;5052406;28;20025;-67
2021/12/22 10:24:17;;;;;;;11.05;4.78;;;;;;;;;;5052006;28;20420;-68
2021/12/22 10:26:43;;;;;;;12.70;4.13;;;;;;;;;;5052919;28;20021;-67
2021/12/22 10:29:08;;;;;;;10.20;5.03;;;;;;;;;;5052732;28;20378;-67
2021/12/22 10:31:33;;;;;;;11.93;6.10;;;;;;;;;;5052397;28;20028;-68
2021/12/22 10:34:00;;;;;;;7.53;4.90;;;;;;;;;;5052314;28;20103;-67
2021/12/22 10:36:26;;;;;;;7.72;5.03;;;;;;;;;;5052590;28;20760;-67
2021/12/22 10:38:59;;;;;;;18.50;4.43;;;;;;;;;;5051837;28;20027;-68
2021/12/22 10:44:42;;;;;;;13.93;6.03;;;;;;;;;;4953816;29;20053;-89
2021/12/22 10:51:08;;;;;;;;;;;;;;;;;;;;;
2021/12/22 10:57:09;;;;;;;15.70;4.60;;;;;;;;;;4994689;28;20050;-90
2021/12/22 11:00:13;;;;;;;10.48;5.07;;;;;;;;;;4991427;28;20031;-91
2021/12/22 11:03:08;;;;;;;5.82;2.55;;;;;;;;;;4996044;28;20026;-90
2021/12/22 11:06:05;;;;;;;15.75;6.97;;;;;;;;;;4999414;28;20029;-90
2021/12/22 11:09:16;;;;;;;13.35;5.32;;;;;;;;;;5021021;28;20067;-90
2021/12/22 11:12:00;;;;;;;17.27;4.95;;;;;;;;;;5024366;28;20056;-89
2021/12/22 11:17:58;;;;;;;22.83;6.57;;;;;;;;;;4973067;28;20026;-90
2021/12/22 11:20:49;;;;;;;15.38;6.45;;;;;;;;;;5053428;28;20074;-89
2021/12/22 11:29:23;;;;;;;7.97;2.85;;;;;;;;;;5049950;28;20029;-89
2021/12/22 11:31:48;;;;;;;9.05;4.93;;;;;;;;;;5056981;22;20041;-63
2021/12/22 11:34:16;;;;;;;9.48;4.15;;;;;;;;;;5031339;28;20019;-63
2021/12/22 11:36:42;;;;;;;11.98;5.68;;;;;;;;;;5031165;28;20067;-63
2021/12/22 11:39:07;;;;;;;18.67;5.32;;;;;;;;;;5031143;28;20029;-63
2021/12/22 11:41:42;;;;;;;9.40;4.68;;;;;;;;;;5030707;28;20481;-63
2021/12/22 11:44:07;;;;;;;12.30;5.25;;;;;;;;;;5054280;22;20095;-69
2021/12/22 11:46:32;;;;;;;19.60;7.00;;;;;;;;;;5031509;28;20021;-66
2021/12/22 11:48:58;;;;;;;12.30;5.93;;;;;;;;;;5031021;28;20025;-66
2021/12/22 11:51:24;;;;;;;7.35;3.38;;;;;;;;;;5030985;28;20462;-66
2021/12/22 11:53:53;;;;;;;18.25;8.40;;;;;;;;;;5031024;28;20103;-66
2021/12/22 11:56:37;;;;;;;11.48;5.82;;;;;;;;;;5030773;28;20116;-66
2021/12/22 11:59:02;;;;;;;10.25;6.35;;;;;;;;;;5030699;28;20473;-66
2021/12/22 12:01:28;;;;;;;9.25;5.93;;;;;;;;;;5030662;28;20026;-66
2021/12/22 12:04:10;;;;;;;15.85;7.05;;;;;;;;;;5030837;28;20024;-66
2021/12/22 12:06:51;;;;;;;10.05;5.18;;;;;;;;;;5030897;28;20029;-66
2021/12/22 12:09:20;;;;;;;9.20;5.15;;;;;;;;;;5030976;28;20029;-66
2021/12/22 12:11:50;;;;;;;5.53;3.47;;;;;;;;;;5030046;28;20040;-66
2021/12/22 12:14:36;;;;;;;6.80;3.63;;;;;;;;;;5011302;28;20030;-66
2021/12/22 12:23:16;;;;;;;15.45;6.57;;;;;;;;;;5010704;28;20029;-66
2021/12/22 12:25:41;;;;;;;15.25;7.38;;;;;;;;;;5026218;28;20021;-66
2021/12/22 12:28:14;;;;;;;12.75;5.20;;;;;;;;;;5030283;28;20335;-66
2021/12/22 12:30:44;;;;;;;14.73;5.72;;;;;;;;;;5027876;28;20028;-66
2021/12/22 12:33:20;;;;;;;19.55;7.15;;;;;;;;;;5033311;28;20075;-66
2021/12/22 12:36:08;;;;;;;8.20;5.15;;;;;;;;;;5032165;28;21775;-66
2021/12/22 12:38:40;;;;;;;13.10;6.43;;;;;;;;;;5025829;28;20425;-66
2021/12/22 12:41:11;;;;;;;15.55;6.13;;;;;;;;;;5027467;28;20021;-66
2021/12/22 12:43:43;;;;;;;8.30;4.63;;;;;;;;;;5029653;28;20185;-66
2021/12/22 12:46:35;;;;;;;9.88;4.78;;;;;;;;;;5031639;28;20021;-66
2021/12/22 12:49:03;;;;;;;18.52;6.68;;;;;;;;;;5033893;28;20033;-66
2021/12/22 12:51:30;;;;;;;9.95;4.53;;;;;;;;;;5031103;28;20038;-66
2021/12/22 12:53:58;;;;;;;6.55;4.00;;;;;;;;;;5046147;28;20424;-66
2021/12/22 12:56:30;;;;;;;7.40;4.50;;;;;;;;;;5029554;28;20045;-66
2021/12/22 12:58:56;;;;;;;9.77;4.05;;;;;;;;;;5019308;28;20036;-66
2021/12/22 13:01:40;;;;;;;14.20;6.68;;;;;;;;;;5039040;28;20047;-66
2021/12/22 13:04:24;;;;;;;11.52;5.18;;;;;;;;;;5026529;28;20108;-66
2021/12/22 13:06:50;;;;;;;12.93;5.75;;;;;;;;;;5029615;28;20025;-66
2021/12/22 13:09:25;;;;;;;10.90;3.53;;;;;;;;;;5030921;28;20369;-66
2021/12/22 13:11:58;;;;;;;15.45;5.93;;;;;;;;;;5010627;28;20695;-68
2021/12/22 13:17:18;;;;;;;5.80;3.47;;;;;;;;;;5032408;28;20060;-66
2021/12/22 13:19:44;;;;;;;5.72;3.33;;;;;;;;;;5036680;28;20021;-66
2021/12/22 13:22:20;;;;;;;15.15;6.60;;;;;;;;;;5013412;28;20032;-67
2021/12/22 13:24:45;;;;;;;7.97;5.03;;;;;;;;;;5028548;28;20143;-67
2021/12/22 13:27:11;;;;;;;9.18;4.70;;;;;;;;;;5035581;28;20017;-67
2021/12/22 13:29:38;;;;;;;6.43;3.50;;;;;;;;;;5046072;28;20472;-67
2021/12/22 13:32:07;;;;;;;10.80;5.40;;;;;;;;;;5036910;28;20503;-67
2021/12/22 13:34:45;;;;;;;16.17;4.43;;;;;;;;;;5029492;28;20496;-67
2021/12/22 13:37:10;;;;;;;11.68;5.57;;;;;;;;;;5034222;28;20103;-67
2021/12/22 13:39:44;;;;;;;11.40;6.53;;;;;;;;;;5031523;28;20044;-67
2021/12/22 13:42:09;;;;;;;9.23;4.75;;;;;;;;;;5033015;28;20018;-67
2021/12/22 13:44:38;;;;;;;16.83;5.45;;;;;;;;;;5032466;28;20052;-67
2021/12/22 13:47:04;;;;;;;9.45;4.55;;;;;;;;;;5030633;28;20021;-67
2021/12/22 13:49:29;;;;;;;10.02;4.93;;;;;;;;;;5029324;28;20014;-67
2021/12/22 13:51:55;;;;;;;9.75;4.60;;;;;;;;;;5028005;28;20100;-67
2021/12/22 13:54:23;;;;;;;10.40;4.57;;;;;;;;;;5027445;28;20029;-67
2021/12/22 13:56:49;;;;;;;12.98;4.32;;;;;;;;;;5031236;28;20041;-67
2021/12/22 13:59:16;;;;;;;13.20;5.07;;;;;;;;;;5032744;28;20492;-67
2021/12/22 14:01:42;;;;;;;5.25;2.78;;;;;;;;;;5031499;28;20485;-67
2021/12/22 14:04:09;;;;;;;15.00;5.50;;;;;;;;;;5030774;28;20084;-66
2021/12/22 14:06:39;;;;;;;6.63;3.00;;;;;;;;;;5027962;28;20501;-66
2021/12/22 14:09:13;;;;;;;9.88;5.18;;;;;;;;;;5028540;28;20033;-67
2021/12/22 14:11:38;;;;;;;11.13;5.57;;;;;;;;;;5040365;28;20036;-67
2021/12/22 14:14:20;;;;;;;10.05;4.00;;;;;;;;;;5037820;28;20017;-67
2021/12/22 14:16:46;;;;;;;13.05;4.95;;;;;;;;;;5036679;28;20362;-66
2021/12/22 14:19:19;;;;;;;8.73;4.22;;;;;;;;;;5035127;28;20067;-67
2021/12/22 14:21:45;;;;;;;7.32;3.53;;;;;;;;;;5035152;28;20063;-67
2021/12/22 14:24:10;;;;;;;11.73;4.72;;;;;;;;;;5033469;28;20025;-67
2021/12/22 14:26:45;;;;;;;5.07;2.83;;;;;;;;;;5043086;28;20466;-67
2021/12/22 14:29:10;;;;;;;9.82;4.93;;;;;;;;;;5039311;28;20083;-66
2021/12/22 14:31:36;;;;;;;10.82;4.95;;;;;;;;;;5036768;28;20022;-67
2021/12/22 14:34:05;;;;;;;13.15;6.07;;;;;;;;;;5030474;28;20497;-67
2021/12/22 14:36:46;;;;;;;8.15;3.72;;;;;;;;;;5031234;28;20075;-67
2021/12/22 14:39:12;;;;;;;11.43;3.65;;;;;;;;;;5027168;28;20025;-67
2021/12/22 14:41:37;;;;;;;17.20;8.30;;;;;;;;;;5035092;28;20021;-67
2021/12/22 14:44:15;;;;;;;18.02;8.15;;;;;;;;;;5037534;28;20072;-66
2021/12/22 14:46:41;;;;;;;18.52;6.80;;;;;;;;;;5028954;28;20030;-67
2021/12/22 14:49:16;;;;;;;11.20;5.57;;;;;;;;;;5028775;28;20045;-67
2021/12/22 14:51:42;;;;;;;4.35;2.60;;;;;;;;;;5038169;28;20561;-67
2021/12/22 14:54:08;;;;;;;14.68;7.38;;;;;;;;;;5029886;28;20029;-67
2021/12/22 14:56:41;;;;;;;10.68;5.03;;;;;;;;;;5011721;28;20083;-67
2021/12/22 14:59:06;;;;;;;18.48;7.60;;;;;;;;;;5030165;28;20541;-67
2021/12/22 15:01:31;;;;;;;15.32;7.45;;;;;;;;;;5034728;28;20100;-67
2021/12/22 15:03:57;;;;;;;9.02;3.90;;;;;;;;;;5017630;28;20056;-67
2021/12/22 15:06:23;;;;;;;17.33;7.55;;;;;;;;;;5040537;28;20040;-66
2021/12/22 15:08:49;;;;;;;16.52;7.65;;;;;;;;;;5028874;28;20017;-67
2021/12/22 15:11:15;;;;;;;20.00;7.78;;;;;;;;;;5028371;28;20030;-67
2021/12/22 15:13:40;;;;;;;14.32;7.20;;;;;;;;;;5029584;28;20021;-67
2021/12/22 15:16:06;;;;;;;20.02;7.72;;;;;;;;;;5029823;28;20034;-67
2021/12/22 15:18:32;;;;;;;15.85;6.72;;;;;;;;;;5029787;28;20021;-67
2021/12/22 15:20:57;;;;;;;5.80;2.90;;;;;;;;;;5029748;28;20024;-66